Portada
METAR-TAF:

METAR-TAF

Aeroports :

Jandakot, Austràlia

latitud: 32-05-51S, longitud: 115-52-52E, altitud: 30 m

Observació

L'informe es va fer fa 30 minuts, a les 09:30 UTC
Vent 9 kt del Sud-Oest
Temperatura 18°C
Humitat 83%
Pressió 1019 hPa
Visibilitat 10 km o més

METAR: YPJT 240930Z AUTO 23009KT 9999 // NCD 18/15 Q1019 RF00.0/000.0

Hora: 18:00 (10:00 UTC)

Pronòstic

L'informe es va fer fa 5 hores i 25 minuts, a les 04:35 UTC
Pronòstic vàlid del 24 a les 06 UTC al 24 a les 24 UTC
Vent 12 kt del Oest/Sud-Oest
Visibilitat 10 km o més
Cel ennuvolat a una alçada de 2500 ft
A partir de les 24 a les 1400 UTC
Vent 5 kt del Sud/Sud-Oest
Visibilitat 10 km o més
Cel ennuvolat a una alçada de 1000 ft
Probabilitat 30%
l' 24 a les 16 UTC al 24 a les 24 UTC
Visibilitat: 0300 m
boira

TAF: YPJT 240435Z 2406/2424 24012KT 9999 BKN025 FM241400 20005KT 9999 BKN010 PROB30 2416/2424 0300 FG

Observacions i pronòstics meteorològics de més de 4000 aeroports (METAR i TAF).

Les estacions disponibles són els punts grocs i vermells al mapa.

Posi el ratolí al punt desitjat per veure el nom de l'estació.

Feu clic per veure les observacions i els pronòstics meteorològics.

Per canviar el mapa: feu clic els botons verds amb una creu de color negre per apropar; al botó verd amb un guió per allunyar la imatge; o en les fletxes verdes per a mapes adjacents.


METAR-TAF: